sensor_id;sensor_type;location;lat;lon;timestamp;P1;P2;P0
76238;PMS7003;65043;48.392;-4.472;2023-03-01T00:01:06;2.00;2.00;1.00
76238;PMS7003;65043;48.392;-4.472;2023-03-01T00:03:34;2.00;1.00;1.00
76238;PMS7003;65043;48.392;-4.472;2023-03-01T00:06:00;2.50;2.00;1.00
76238;PMS7003;65043;48.392;-4.472;2023-03-01T00:08:26;2.50;0.00;0.00
76238;PMS7003;65043;48.392;-4.472;2023-03-01T00:11:08;2.25;0.00;0.00
76238;PMS7003;65043;48.392;-4.472;2023-03-01T00:13:37;2.00;1.00;1.00
76238;PMS7003;65043;48.392;-4.472;2023-03-01T00:16:10;1.00;1.00;0.00
76238;PMS7003;65043;48.392;-4.472;2023-03-01T00:18:38;2.75;1.00;1.00
76238;PMS7003;65043;48.392;-4.472;2023-03-01T00:21:03;1.25;1.00;1.00
76238;PMS7003;65043;48.392;-4.472;2023-03-01T00:23:30;2.50;2.50;1.50
76238;PMS7003;65043;48.392;-4.472;2023-03-01T00:25:56;2.25;1.50;1.00
76238;PMS7003;65043;48.392;-4.472;2023-03-01T00:28:21;2.75;1.75;1.00
76238;PMS7003;65043;48.392;-4.472;2023-03-01T00:30:47;2.25;2.25;2.00
76238;PMS7003;65043;48.392;-4.472;2023-03-01T00:33:12;2.00;2.00;1.00
76238;PMS7003;65043;48.392;-4.472;2023-03-01T00:35:38;2.75;2.75;2.00
76238;PMS7003;65043;48.392;-4.472;2023-03-01T00:38:03;3.00;3.00;2.00
76238;PMS7003;65043;48.392;-4.472;2023-03-01T00:40:30;2.00;2.00;1.50
76238;PMS7003;65043;48.392;-4.472;2023-03-01T00:42:58;5.75;3.75;2.50
76238;PMS7003;65043;48.392;-4.472;2023-03-01T00:45:23;4.00;3.75;3.00
76238;PMS7003;65043;48.392;-4.472;2023-03-01T00:47:49;3.75;3.75;3.00
76238;PMS7003;65043;48.392;-4.472;2023-03-01T00:50:15;5.00;3.00;2.75
76238;PMS7003;65043;48.392;-4.472;2023-03-01T00:52:40;4.50;4.50;3.00
76238;PMS7003;65043;48.392;-4.472;2023-03-01T00:55:06;5.00;5.00;4.00
76238;PMS7003;65043;48.392;-4.472;2023-03-01T00:57:32;4.75;4.75;4.00
76238;PMS7003;65043;48.392;-4.472;2023-03-01T00:59:58;7.25;6.25;4.25
76238;PMS7003;65043;48.392;-4.472;2023-03-01T01:02:24;7.00;5.00;4.00
76238;PMS7003;65043;48.392;-4.472;2023-03-01T01:04:49;8.50;7.75;5.75
76238;PMS7003;65043;48.392;-4.472;2023-03-01T01:07:15;8.75;7.50;4.50
76238;PMS7003;65043;48.392;-4.472;2023-03-01T01:09:41;12.75;7.00;4.00
76238;PMS7003;65043;48.392;-4.472;2023-03-01T01:12:07;9.50;6.00;4.25
76238;PMS7003;65043;48.392;-4.472;2023-03-01T01:14:32;6.50;4.00;3.00
76238;PMS7003;65043;48.392;-4.472;2023-03-01T01:16:58;10.50;9.00;4.75
76238;PMS7003;65043;48.392;-4.472;2023-03-01T01:19:24;8.00;6.25;4.00
76238;PMS7003;65043;48.392;-4.472;2023-03-01T01:21:50;7.25;6.75;5.00
76238;PMS7003;65043;48.392;-4.472;2023-03-01T01:24:16;9.50;7.25;5.00
76238;PMS7003;65043;48.392;-4.472;2023-03-01T01:26:42;8.50;7.00;5.00
76238;PMS7003;65043;48.392;-4.472;2023-03-01T01:29:08;9.25;9.00;7.00
76238;PMS7003;65043;48.392;-4.472;2023-03-01T01:31:34;12.75;7.75;4.00
76238;PMS7003;65043;48.392;-4.472;2023-03-01T01:34:02;10.25;8.00;4.75
76238;PMS7003;65043;48.392;-4.472;2023-03-01T01:36:29;8.50;8.00;5.00
76238;PMS7003;65043;48.392;-4.472;2023-03-01T01:38:56;10.00;9.75;5.00
76238;PMS7003;65043;48.392;-4.472;2023-03-01T01:41:22;8.75;8.75;5.00
76238;PMS7003;65043;48.392;-4.472;2023-03-01T01:46:55;9.00;9.00;6.25
76238;PMS7003;65043;48.392;-4.472;2023-03-01T01:52:07;16.25;15.00;10.00
76238;PMS7003;65043;48.392;-4.472;2023-03-01T01:57:07;26.00;21.33;16.00
76238;PMS7003;65043;48.392;-4.472;2023-03-01T01:59:37;27.50;22.75;15.50
76238;PMS7003;65043;48.392;-4.472;2023-03-01T02:02:04;25.50;21.50;14.25
76238;PMS7003;65043;48.392;-4.472;2023-03-01T02:04:30;31.00;22.75;16.00
76238;PMS7003;65043;48.392;-4.472;2023-03-01T02:07:18;29.50;25.50;15.75
76238;PMS7003;65043;48.392;-4.472;2023-03-01T02:09:49;24.25;22.25;16.00
76238;PMS7003;65043;48.392;-4.472;2023-03-01T02:12:18;31.00;26.50;19.75
76238;PMS7003;65043;48.392;-4.472;2023-03-01T02:14:46;30.00;22.50;17.00
76238;PMS7003;65043;48.392;-4.472;2023-03-01T02:17:12;38.50;32.50;20.50
76238;PMS7003;65043;48.392;-4.472;2023-03-01T02:22:25;31.25;27.75;19.75
76238;PMS7003;65043;48.392;-4.472;2023-03-01T02:27:32;32.75;29.50;19.50
76238;PMS7003;65043;48.392;-4.472;2023-03-01T02:30:03;34.50;26.50;19.25
76238;PMS7003;65043;48.392;-4.472;2023-03-01T02:32:29;32.00;32.00;22.50
76238;PMS7003;65043;48.392;-4.472;2023-03-01T02:34:56;37.75;33.75;22.00
76238;PMS7003;65043;48.392;-4.472;2023-03-01T02:37:21;39.50;33.75;21.00
76238;PMS7003;65043;48.392;-4.472;2023-03-01T02:39:51;30.25;28.75;20.25
76238;PMS7003;65043;48.392;-4.472;2023-03-01T02:42:23;34.50;30.00;15.75
76238;PMS7003;65043;48.392;-4.472;2023-03-01T02:44:53;38.50;32.75;20.75
76238;PMS7003;65043;48.392;-4.472;2023-03-01T02:47:19;40.50;32.75;20.50
76238;PMS7003;65043;48.392;-4.472;2023-03-01T02:49:45;37.50;32.75;21.75
76238;PMS7003;65043;48.392;-4.472;2023-03-01T02:52:57;43.75;34.00;22.25
76238;PMS7003;65043;48.392;-4.472;2023-03-01T02:55:18;36.50;32.25;22.25
76238;PMS7003;65043;48.392;-4.472;2023-03-01T02:57:44;36.50;34.75;22.50
76238;PMS7003;65043;48.392;-4.472;2023-03-01T03:00:17;39.50;34.50;22.25
76238;PMS7003;65043;48.392;-4.472;2023-03-01T03:02:49;43.00;37.00;23.00
76238;PMS7003;65043;48.392;-4.472;2023-03-01T03:05:19;38.50;32.00;21.00
76238;PMS7003;65043;48.392;-4.472;2023-03-01T03:07:48;45.75;35.00;22.50
76238;PMS7003;65043;48.392;-4.472;2023-03-01T03:10:16;39.00;33.50;23.25
76238;PMS7003;65043;48.392;-4.472;2023-03-01T03:12:47;46.00;37.00;22.75
76238;PMS7003;65043;48.392;-4.472;2023-03-01T03:15:14;33.25;33.00;22.25
76238;PMS7003;65043;48.392;-4.472;2023-03-01T03:17:41;38.00;32.25;19.75
76238;PMS7003;65043;48.392;-4.472;2023-03-01T03:20:07;39.00;32.50;22.25
76238;PMS7003;65043;48.392;-4.472;2023-03-01T03:22:37;41.00;33.50;24.00
76238;PMS7003;65043;48.392;-4.472;2023-03-01T03:25:04;39.75;33.25;21.50
76238;PMS7003;65043;48.392;-4.472;2023-03-01T03:27:35;34.50;27.50;20.75
76238;PMS7003;65043;48.392;-4.472;2023-03-01T03:30:04;42.50;36.00;24.00
76238;PMS7003;65043;48.392;-4.472;2023-03-01T03:32:37;40.50;33.75;21.00
76238;PMS7003;65043;48.392;-4.472;2023-03-01T03:35:04;47.25;38.00;24.00
76238;PMS7003;65043;48.392;-4.472;2023-03-01T03:37:40;46.75;37.25;23.50
76238;PMS7003;65043;48.392;-4.472;2023-03-01T03:40:25;44.75;37.25;23.75
76238;PMS7003;65043;48.392;-4.472;2023-03-01T03:42:52;47.25;39.00;25.00
76238;PMS7003;65043;48.392;-4.472;2023-03-01T03:45:18;48.25;36.00;23.50
76238;PMS7003;65043;48.392;-4.472;2023-03-01T03:47:43;40.25;37.50;24.25
76238;PMS7003;65043;48.392;-4.472;2023-03-01T03:50:10;49.25;37.50;24.00
76238;PMS7003;65043;48.392;-4.472;2023-03-01T03:52:37;52.75;38.75;25.50
76238;PMS7003;65043;48.392;-4.472;2023-03-01T03:55:02;47.50;36.75;23.75
76238;PMS7003;65043;48.392;-4.472;2023-03-01T03:57:28;47.00;41.25;24.50
76238;PMS7003;65043;48.392;-4.472;2023-03-01T03:59:54;50.25;38.75;24.50
76238;PMS7003;65043;48.392;-4.472;2023-03-01T04:02:19;44.25;37.50;24.00
76238;PMS7003;65043;48.392;-4.472;2023-03-01T04:04:46;47.00;38.75;24.25
76238;PMS7003;65043;48.392;-4.472;2023-03-01T04:07:14;51.00;39.00;25.00
76238;PMS7003;65043;48.392;-4.472;2023-03-01T04:09:40;44.25;38.50;25.25
76238;PMS7003;65043;48.392;-4.472;2023-03-01T04:12:07;48.75;38.50;23.75
76238;PMS7003;65043;48.392;-4.472;2023-03-01T04:14:33;49.50;38.25;25.50
76238;PMS7003;65043;48.392;-4.472;2023-03-01T04:16:58;50.25;40.25;26.25
76238;PMS7003;65043;48.392;-4.472;2023-03-01T04:19:24;49.00;39.00;24.25
76238;PMS7003;65043;48.392;-4.472;2023-03-01T04:21:50;40.50;35.75;23.75
76238;PMS7003;65043;48.392;-4.472;2023-03-01T04:24:15;49.25;35.75;21.75
76238;PMS7003;65043;48.392;-4.472;2023-03-01T04:26:41;47.00;41.25;26.50
76238;PMS7003;65043;48.392;-4.472;2023-03-01T04:29:06;54.25;39.75;25.25
76238;PMS7003;65043;48.392;-4.472;2023-03-01T04:31:32;48.00;40.25;25.50
76238;PMS7003;65043;48.392;-4.472;2023-03-01T04:33:57;47.75;39.75;25.00
76238;PMS7003;65043;48.392;-4.472;2023-03-01T04:36:24;34.50;29.75;14.75
76238;PMS7003;65043;48.392;-4.472;2023-03-01T04:38:52;49.00;38.75;24.00
76238;PMS7003;65043;48.392;-4.472;2023-03-01T04:41:18;47.00;40.25;24.00
76238;PMS7003;65043;48.392;-4.472;2023-03-01T04:43:45;53.00;40.25;26.25
76238;PMS7003;65043;48.392;-4.472;2023-03-01T04:46:12;50.75;39.00;25.00
76238;PMS7003;65043;48.392;-4.472;2023-03-01T04:48:40;49.75;39.00;24.25
76238;PMS7003;65043;48.392;-4.472;2023-03-01T04:51:06;51.25;40.00;24.00
76238;PMS7003;65043;48.392;-4.472;2023-03-01T04:53:33;54.25;42.25;24.50
76238;PMS7003;65043;48.392;-4.472;2023-03-01T04:56:01;44.25;38.75;24.25
76238;PMS7003;65043;48.392;-4.472;2023-03-01T04:58:26;44.50;38.50;23.50
76238;PMS7003;65043;48.392;-4.472;2023-03-01T05:00:53;45.50;39.25;25.75
76238;PMS7003;65043;48.392;-4.472;2023-03-01T05:03:19;47.25;39.25;27.25
76238;PMS7003;65043;48.392;-4.472;2023-03-01T05:05:46;52.75;39.00;24.75
76238;PMS7003;65043;48.392;-4.472;2023-03-01T05:08:14;49.00;39.00;25.00
76238;PMS7003;65043;48.392;-4.472;2023-03-01T05:10:47;51.50;39.75;24.00
76238;PMS7003;65043;48.392;-4.472;2023-03-01T05:13:14;51.75;41.00;26.25
76238;PMS7003;65043;48.392;-4.472;2023-03-01T05:15:46;44.00;38.75;24.00
76238;PMS7003;65043;48.392;-4.472;2023-03-01T05:18:22;50.75;40.50;27.00
76238;PMS7003;65043;48.392;-4.472;2023-03-01T05:20:50;41.00;36.50;24.25
76238;PMS7003;65043;48.392;-4.472;2023-03-01T05:23:23;52.50;41.75;25.75
76238;PMS7003;65043;48.392;-4.472;2023-03-01T05:25:48;49.75;39.50;24.25
76238;PMS7003;65043;48.392;-4.472;2023-03-01T05:28:17;44.00;38.75;24.00
76238;PMS7003;65043;48.392;-4.472;2023-03-01T05:30:45;51.00;40.75;27.00
76238;PMS7003;65043;48.392;-4.472;2023-03-01T05:33:11;46.75;39.00;24.00
76238;PMS7003;65043;48.392;-4.472;2023-03-01T05:35:42;48.75;40.25;24.00
76238;PMS7003;65043;48.392;-4.472;2023-03-01T05:38:12;45.25;38.50;25.25
76238;PMS7003;65043;48.392;-4.472;2023-03-01T05:40:41;41.50;37.00;24.00
76238;PMS7003;65043;48.392;-4.472;2023-03-01T05:43:08;41.25;36.25;24.00
76238;PMS7003;65043;48.392;-4.472;2023-03-01T05:45:35;50.00;39.25;24.50
76238;PMS7003;65043;48.392;-4.472;2023-03-01T05:48:02;44.25;38.50;25.50
76238;PMS7003;65043;48.392;-4.472;2023-03-01T05:50:28;41.00;35.25;20.50
76238;PMS7003;65043;48.392;-4.472;2023-03-01T05:52:59;40.50;36.00;22.75
76238;PMS7003;65043;48.392;-4.472;2023-03-01T05:55:27;50.25;39.50;24.50
76238;PMS7003;65043;48.392;-4.472;2023-03-01T05:57:54;51.75;39.50;24.00
76238;PMS7003;65043;48.392;-4.472;2023-03-01T06:00:20;56.50;41.25;26.50
76238;PMS7003;65043;48.392;-4.472;2023-03-01T06:02:49;47.00;40.25;24.50
76238;PMS7003;65043;48.392;-4.472;2023-03-01T06:05:16;47.25;38.75;27.00
76238;PMS7003;65043;48.392;-4.472;2023-03-01T06:07:41;47.75;40.25;26.50
76238;PMS7003;65043;48.392;-4.472;2023-03-01T06:10:07;46.00;39.25;24.25
76238;PMS7003;65043;48.392;-4.472;2023-03-01T06:12:35;46.25;38.25;25.25
76238;PMS7003;65043;48.392;-4.472;2023-03-01T06:15:02;44.50;39.50;25.25
76238;PMS7003;65043;48.392;-4.472;2023-03-01T06:17:28;38.50;33.50;22.00
76238;PMS7003;65043;48.392;-4.472;2023-03-01T06:19:55;42.25;35.00;24.00
76238;PMS7003;65043;48.392;-4.472;2023-03-01T06:22:20;47.25;39.00;24.75
76238;PMS7003;65043;48.392;-4.472;2023-03-01T06:24:46;54.50;43.00;24.25
76238;PMS7003;65043;48.392;-4.472;2023-03-01T06:27:11;54.00;42.25;26.00
76238;PMS7003;65043;48.392;-4.472;2023-03-01T06:29:37;46.50;40.00;26.00
76238;PMS7003;65043;48.392;-4.472;2023-03-01T06:32:02;50.50;42.00;26.50
76238;PMS7003;65043;48.392;-4.472;2023-03-01T06:34:28;49.25;40.50;25.25
76238;PMS7003;65043;48.392;-4.472;2023-03-01T06:36:54;51.25;40.00;25.25
76238;PMS7003;65043;48.392;-4.472;2023-03-01T06:39:19;47.75;39.50;27.75
76238;PMS7003;65043;48.392;-4.472;2023-03-01T06:41:45;48.75;40.00;24.50
76238;PMS7003;65043;48.392;-4.472;2023-03-01T06:44:10;46.75;38.00;24.25
76238;PMS7003;65043;48.392;-4.472;2023-03-01T06:46:36;44.50;37.50;24.25
76238;PMS7003;65043;48.392;-4.472;2023-03-01T06:49:01;55.25;41.00;25.75
76238;PMS7003;65043;48.392;-4.472;2023-03-01T06:51:29;46.50;40.50;26.50
76238;PMS7003;65043;48.392;-4.472;2023-03-01T06:53:55;43.50;39.00;24.25
76238;PMS7003;65043;48.392;-4.472;2023-03-01T06:56:20;43.00;38.50;25.50
76238;PMS7003;65043;48.392;-4.472;2023-03-01T06:58:46;50.25;36.50;24.25
76238;PMS7003;65043;48.392;-4.472;2023-03-01T07:01:11;50.00;38.25;23.00
76238;PMS7003;65043;48.392;-4.472;2023-03-01T07:03:36;48.50;37.25;23.75
76238;PMS7003;65043;48.392;-4.472;2023-03-01T07:06:02;46.25;39.00;25.50
76238;PMS7003;65043;48.392;-4.472;2023-03-01T07:08:27;46.75;38.25;25.00
76238;PMS7003;65043;48.392;-4.472;2023-03-01T07:10:56;48.75;40.75;27.00
76238;PMS7003;65043;48.392;-4.472;2023-03-01T07:13:22;53.75;38.50;24.25
76238;PMS7003;65043;48.392;-4.472;2023-03-01T07:15:47;40.75;37.00;24.25
76238;PMS7003;65043;48.392;-4.472;2023-03-01T07:18:13;46.25;39.25;26.00
76238;PMS7003;65043;48.392;-4.472;2023-03-01T07:20:38;47.75;39.25;25.75
76238;PMS7003;65043;48.392;-4.472;2023-03-01T07:23:05;41.50;37.25;23.75
76238;PMS7003;65043;48.392;-4.472;2023-03-01T07:25:31;45.25;36.75;24.00
76238;PMS7003;65043;48.392;-4.472;2023-03-01T07:27:57;45.75;37.50;24.25
76238;PMS7003;65043;48.392;-4.472;2023-03-01T07:30:23;49.25;38.75;24.75
76238;PMS7003;65043;48.392;-4.472;2023-03-01T07:32:50;43.75;39.00;24.75
76238;PMS7003;65043;48.392;-4.472;2023-03-01T07:35:16;40.25;36.50;24.50
76238;PMS7003;65043;48.392;-4.472;2023-03-01T07:37:42;41.50;34.00;22.00
76238;PMS7003;65043;48.392;-4.472;2023-03-01T07:40:09;49.75;39.00;24.75
76238;PMS7003;65043;48.392;-4.472;2023-03-01T07:42:35;43.00;37.00;23.75
76238;PMS7003;65043;48.392;-4.472;2023-03-01T07:45:01;42.75;36.50;24.25
76238;PMS7003;65043;48.392;-4.472;2023-03-01T07:47:27;34.25;29.50;19.75
76238;PMS7003;65043;48.392;-4.472;2023-03-01T07:49:52;46.50;36.75;22.75
76238;PMS7003;65043;48.392;-4.472;2023-03-01T07:52:17;42.00;39.25;24.25
76238;PMS7003;65043;48.392;-4.472;2023-03-01T07:54:43;44.00;37.00;25.00
76238;PMS7003;65043;48.392;-4.472;2023-03-01T07:57:11;40.75;36.50;22.75
76238;PMS7003;65043;48.392;-4.472;2023-03-01T07:59:37;39.25;35.00;21.50
76238;PMS7003;65043;48.392;-4.472;2023-03-01T08:02:02;39.75;37.00;24.25
76238;PMS7003;65043;48.392;-4.472;2023-03-01T08:04:28;48.00;37.50;22.00
76238;PMS7003;65043;48.392;-4.472;2023-03-01T08:06:54;38.50;35.75;22.50
76238;PMS7003;65043;48.392;-4.472;2023-03-01T08:09:20;40.00;32.75;23.00
76238;PMS7003;65043;48.392;-4.472;2023-03-01T08:11:46;40.75;38.50;23.75
76238;PMS7003;65043;48.392;-4.472;2023-03-01T08:14:11;38.25;30.75;22.00
76238;PMS7003;65043;48.392;-4.472;2023-03-01T08:16:37;40.50;37.75;23.75
76238;PMS7003;65043;48.392;-4.472;2023-03-01T08:19:06;37.50;30.50;18.50
76238;PMS7003;65043;48.392;-4.472;2023-03-01T08:21:33;40.00;33.25;23.75
76238;PMS7003;65043;48.392;-4.472;2023-03-01T08:24:02;38.00;34.75;23.75
76238;PMS7003;65043;48.392;-4.472;2023-03-01T08:26:28;35.00;34.75;21.50
76238;PMS7003;65043;48.392;-4.472;2023-03-01T08:28:54;40.00;35.00;20.75
76238;PMS7003;65043;48.392;-4.472;2023-03-01T08:31:26;40.00;32.25;21.00
76238;PMS7003;65043;48.392;-4.472;2023-03-01T08:33:55;36.00;31.75;22.00
76238;PMS7003;65043;48.392;-4.472;2023-03-01T08:36:23;30.75;27.00;19.50
76238;PMS7003;65043;48.392;-4.472;2023-03-01T08:38:53;38.50;32.25;23.25
76238;PMS7003;65043;48.392;-4.472;2023-03-01T08:41:19;38.00;34.50;23.75
76238;PMS7003;65043;48.392;-4.472;2023-03-01T08:43:45;33.25;26.50;19.25
76238;PMS7003;65043;48.392;-4.472;2023-03-01T08:46:11;37.25;30.75;21.00
76238;PMS7003;65043;48.392;-4.472;2023-03-01T08:48:37;35.50;31.00;22.00
76238;PMS7003;65043;48.392;-4.472;2023-03-01T08:51:07;41.50;32.25;22.00
76238;PMS7003;65043;48.392;-4.472;2023-03-01T08:53:37;35.00;30.25;19.25
76238;PMS7003;65043;48.392;-4.472;2023-03-01T08:56:03;38.25;33.75;20.50
76238;PMS7003;65043;48.392;-4.472;2023-03-01T08:58:29;40.50;31.75;22.75
76238;PMS7003;65043;48.392;-4.472;2023-03-01T09:00:54;34.00;28.25;15.75
76238;PMS7003;65043;48.392;-4.472;2023-03-01T09:03:21;31.00;27.75;19.25
76238;PMS7003;65043;48.392;-4.472;2023-03-01T09:05:48;38.00;32.00;20.50
76238;PMS7003;65043;48.392;-4.472;2023-03-01T09:08:15;34.50;28.00;18.25
76238;PMS7003;65043;48.392;-4.472;2023-03-01T09:10:41;37.00;29.75;18.50
76238;PMS7003;65043;48.392;-4.472;2023-03-01T09:13:07;39.00;33.00;22.50
76238;PMS7003;65043;48.392;-4.472;2023-03-01T09:15:32;39.00;30.50;20.00
76238;PMS7003;65043;48.392;-4.472;2023-03-01T09:17:58;37.50;33.00;21.75
76238;PMS7003;65043;48.392;-4.472;2023-03-01T09:20:24;35.75;32.25;21.25
76238;PMS7003;65043;48.392;-4.472;2023-03-01T09:22:50;34.25;30.00;19.50
76238;PMS7003;65043;48.392;-4.472;2023-03-01T09:25:15;30.00;22.25;16.25
76238;PMS7003;65043;48.392;-4.472;2023-03-01T09:27:40;33.75;30.00;19.25
76238;PMS7003;65043;48.392;-4.472;2023-03-01T09:30:07;32.25;28.50;20.00
76238;PMS7003;65043;48.392;-4.472;2023-03-01T09:32:33;32.25;27.25;19.00
76238;PMS7003;65043;48.392;-4.472;2023-03-01T09:34:58;32.50;28.50;19.25
76238;PMS7003;65043;48.392;-4.472;2023-03-01T09:37:29;31.75;29.00;19.50
76238;PMS7003;65043;48.392;-4.472;2023-03-01T09:39:57;30.25;24.00;18.75
76238;PMS7003;65043;48.392;-4.472;2023-03-01T09:42:22;35.25;26.75;19.75
76238;PMS7003;65043;48.392;-4.472;2023-03-01T09:44:50;30.00;26.00;18.75
76238;PMS7003;65043;48.392;-4.472;2023-03-01T09:47:41;27.50;27.00;20.00
76238;PMS7003;65043;48.392;-4.472;2023-03-01T09:52:58;33.25;28.25;18.00
76238;PMS7003;65043;48.392;-4.472;2023-03-01T09:55:37;31.75;29.25;19.50
76238;PMS7003;65043;48.392;-4.472;2023-03-01T10:00:43;31.25;29.25;19.00
76238;PMS7003;65043;48.392;-4.472;2023-03-01T10:03:21;32.25;28.75;19.25
76238;PMS7003;65043;48.392;-4.472;2023-03-01T10:08:31;29.00;28.00;18.25
76238;PMS7003;65043;48.392;-4.472;2023-03-01T10:11:03;39.00;35.25;21.00
76238;PMS7003;65043;48.392;-4.472;2023-03-01T10:13:42;32.25;29.25;20.25
76238;PMS7003;65043;48.392;-4.472;2023-03-01T10:18:43;32.25;29.00;19.75
76238;PMS7003;65043;48.392;-4.472;2023-03-01T10:21:17;33.50;28.00;18.75
76238;PMS7003;65043;48.392;-4.472;2023-03-01T10:23:43;29.75;24.75;16.25
76238;PMS7003;65043;48.392;-4.472;2023-03-01T10:28:44;32.50;30.50;20.50
76238;PMS7003;65043;48.392;-4.472;2023-03-01T10:31:15;29.25;27.50;16.75
76238;PMS7003;65043;48.392;-4.472;2023-03-01T10:33:52;32.00;28.00;19.75
76238;PMS7003;65043;48.392;-4.472;2023-03-01T10:36:20;37.25;33.50;20.50
76238;PMS7003;65043;48.392;-4.472;2023-03-01T10:38:54;36.75;31.00;20.25
76238;PMS7003;65043;48.392;-4.472;2023-03-01T10:41:23;30.75;27.75;18.25
76238;PMS7003;65043;48.392;-4.472;2023-03-01T10:43:55;38.00;30.25;19.75
76238;PMS7003;65043;48.392;-4.472;2023-03-01T10:49:10;33.00;28.50;20.75
76238;PMS7003;65043;48.392;-4.472;2023-03-01T10:51:40;36.75;29.00;20.50
76238;PMS7003;65043;48.392;-4.472;2023-03-01T10:54:15;38.00;28.75;18.75
76238;PMS7003;65043;48.392;-4.472;2023-03-01T10:56:55;41.50;34.75;19.75
76238;PMS7003;65043;48.392;-4.472;2023-03-01T10:59:33;37.00;33.75;19.75
76238;PMS7003;65043;48.392;-4.472;2023-03-01T11:02:09;36.75;30.50;21.25
76238;PMS7003;65043;48.392;-4.472;2023-03-01T11:04:55;40.25;32.75;20.75
76238;PMS7003;65043;48.392;-4.472;2023-03-01T11:07:22;40.25;35.00;22.00
76238;PMS7003;65043;48.392;-4.472;2023-03-01T11:09:48;38.00;33.00;21.00
76238;PMS7003;65043;48.392;-4.472;2023-03-01T11:12:14;39.50;34.00;23.00
76238;PMS7003;65043;48.392;-4.472;2023-03-01T11:14:48;39.25;32.25;22.00
76238;PMS7003;65043;48.392;-4.472;2023-03-01T11:17:29;41.50;33.75;20.75
76238;PMS7003;65043;48.392;-4.472;2023-03-01T11:20:18;40.00;36.00;20.75
76238;PMS7003;65043;48.392;-4.472;2023-03-01T11:23:14;42.50;37.00;22.00
76238;PMS7003;65043;48.392;-4.472;2023-03-01T11:26:02;37.75;34.25;23.00
76238;PMS7003;65043;48.392;-4.472;2023-03-01T11:28:29;39.25;34.25;23.00
76238;PMS7003;65043;48.392;-4.472;2023-03-01T11:31:00;39.50;35.50;22.50
76238;PMS7003;65043;48.392;-4.472;2023-03-01T11:35:57;43.25;35.50;24.00
76238;PMS7003;65043;48.392;-4.472;2023-03-01T11:38:28;44.75;36.50;24.00
76238;PMS7003;65043;48.392;-4.472;2023-03-01T11:43:47;42.75;35.00;23.75
76238;PMS7003;65043;48.392;-4.472;2023-03-01T11:56:35;46.75;37.00;25.00
76238;PMS7003;65043;48.392;-4.472;2023-03-01T12:01:40;48.50;37.25;24.00
76238;PMS7003;65043;48.392;-4.472;2023-03-01T12:07:01;49.75;39.25;24.75
76238;PMS7003;65043;48.392;-4.472;2023-03-01T12:14:45;50.25;40.25;25.00
76238;PMS7003;65043;48.392;-4.472;2023-03-01T12:25:48;42.75;37.00;23.25
76238;PMS7003;65043;48.392;-4.472;2023-03-01T12:37:14;43.75;35.75;24.25
76238;PMS7003;65043;48.392;-4.472;2023-03-01T12:39:59;45.00;36.25;25.00
76238;PMS7003;65043;48.392;-4.472;2023-03-01T12:48:50;50.25;37.00;23.50
76238;PMS7003;65043;48.392;-4.472;2023-03-01T12:51:26;48.50;37.75;24.00
76238;PMS7003;65043;48.392;-4.472;2023-03-01T12:53:57;47.75;37.00;22.00
76238;PMS7003;65043;48.392;-4.472;2023-03-01T12:56:29;40.50;34.25;23.00
76238;PMS7003;65043;48.392;-4.472;2023-03-01T13:07:08;40.25;35.00;23.00
76238;PMS7003;65043;48.392;-4.472;2023-03-01T13:17:47;40.25;33.00;22.25
76238;PMS7003;65043;48.392;-4.472;2023-03-01T13:20:25;48.25;36.00;24.00
76238;PMS7003;65043;48.392;-4.472;2023-03-01T13:37:08;43.00;36.25;24.00
76238;PMS7003;65043;48.392;-4.472;2023-03-01T13:39:04;41.50;35.25;22.75
76238;PMS7003;65043;48.392;-4.472;2023-03-01T13:41:52;49.75;36.50;24.00
76238;PMS7003;65043;48.392;-4.472;2023-03-01T13:46:48;35.75;34.75;21.75
76238;PMS7003;65043;48.392;-4.472;2023-03-01T13:49:25;46.00;32.75;22.25
76238;PMS7003;65043;48.392;-4.472;2023-03-01T13:51:54;40.00;35.25;22.25
76238;PMS7003;65043;48.392;-4.472;2023-03-01T13:54:30;40.75;35.25;22.00
76238;PMS7003;65043;48.392;-4.472;2023-03-01T13:56:57;39.50;32.50;20.75
76238;PMS7003;65043;48.392;-4.472;2023-03-01T13:59:25;43.75;35.75;24.50
76238;PMS7003;65043;48.392;-4.472;2023-03-01T14:01:52;42.00;34.25;22.00
76238;PMS7003;65043;48.392;-4.472;2023-03-01T14:04:29;46.00;36.50;21.50
76238;PMS7003;65043;48.392;-4.472;2023-03-01T14:09:52;43.75;37.25;22.75
76238;PMS7003;65043;48.392;-4.472;2023-03-01T14:20:22;42.25;37.75;24.00
76238;PMS7003;65043;48.392;-4.472;2023-03-01T14:22:55;41.25;35.00;21.50
76238;PMS7003;65043;48.392;-4.472;2023-03-01T14:25:31;45.75;34.75;22.50
76238;PMS7003;65043;48.392;-4.472;2023-03-01T14:28:16;49.25;36.25;22.00
76238;PMS7003;65043;48.392;-4.472;2023-03-01T14:30:46;47.00;35.00;22.00
76238;PMS7003;65043;48.392;-4.472;2023-03-01T14:33:45;45.50;37.00;24.25
76238;PMS7003;65043;48.392;-4.472;2023-03-01T14:38:36;42.75;36.50;23.00
76238;PMS7003;65043;48.392;-4.472;2023-03-01T14:41:07;49.75;34.25;22.00
76238;PMS7003;65043;48.392;-4.472;2023-03-01T14:43:40;47.50;37.25;24.00
76238;PMS7003;65043;48.392;-4.472;2023-03-01T14:48:51;51.25;39.50;24.00
76238;PMS7003;65043;48.392;-4.472;2023-03-01T14:51:19;43.25;37.25;23.50
76238;PMS7003;65043;48.392;-4.472;2023-03-01T14:53:44;42.50;35.00;22.50
76238;PMS7003;65043;48.392;-4.472;2023-03-01T14:56:14;43.50;35.75;23.25
76238;PMS7003;65043;48.392;-4.472;2023-03-01T14:58:42;43.25;34.00;20.00
76238;PMS7003;65043;48.392;-4.472;2023-03-01T15:01:13;39.75;34.50;21.50
76238;PMS7003;65043;48.392;-4.472;2023-03-01T15:03:45;34.25;31.25;20.75
76238;PMS7003;65043;48.392;-4.472;2023-03-01T15:06:20;43.75;34.75;22.00
76238;PMS7003;65043;48.392;-4.472;2023-03-01T15:08:48;40.00;35.25;24.75
76238;PMS7003;65043;48.392;-4.472;2023-03-01T15:11:21;52.00;39.25;22.50
76238;PMS7003;65043;48.392;-4.472;2023-03-01T15:13:49;44.25;36.75;22.75
76238;PMS7003;65043;48.392;-4.472;2023-03-01T15:16:35;50.00;35.50;21.25
76238;PMS7003;65043;48.392;-4.472;2023-03-01T15:19:06;37.75;32.25;22.00
76238;PMS7003;65043;48.392;-4.472;2023-03-01T15:21:35;36.75;32.00;21.25
76238;PMS7003;65043;48.392;-4.472;2023-03-01T15:26:45;38.00;34.75;21.00
76238;PMS7003;65043;48.392;-4.472;2023-03-01T15:29:17;40.50;32.50;21.50
76238;PMS7003;65043;48.392;-4.472;2023-03-01T15:31:53;43.75;33.00;21.50
76238;PMS7003;65043;48.392;-4.472;2023-03-01T15:34:42;34.25;31.75;20.75
76238;PMS7003;65043;48.392;-4.472;2023-03-01T15:40:20;46.75;38.75;23.00
76238;PMS7003;65043;48.392;-4.472;2023-03-01T15:42:58;38.75;33.25;21.75
76238;PMS7003;65043;48.392;-4.472;2023-03-01T15:45:25;40.25;34.50;22.00
76238;PMS7003;65043;48.392;-4.472;2023-03-01T15:47:56;33.50;32.00;21.25
76238;PMS7003;65043;48.392;-4.472;2023-03-01T15:50:27;38.00;33.25;21.75
76238;PMS7003;65043;48.392;-4.472;2023-03-01T15:52:54;39.75;33.00;21.25
76238;PMS7003;65043;48.392;-4.472;2023-03-01T15:55:25;36.00;32.75;21.50
76238;PMS7003;65043;48.392;-4.472;2023-03-01T15:58:04;39.50;34.75;22.00
76238;PMS7003;65043;48.392;-4.472;2023-03-01T16:00:59;40.25;32.50;22.50
76238;PMS7003;65043;48.392;-4.472;2023-03-01T16:03:24;44.50;34.00;22.00